sensor_id;sensor_type;location;lat;lon;timestamp;P1;durP1;ratioP1;P2;durP2;ratioP2
17890;SDS011;9071;48.220;14.480;2022-10-16T00:00:55;46.00;;;22.30;;
17890;SDS011;9071;48.220;14.480;2022-10-16T00:06:00;62.90;;;24.20;;
17890;SDS011;9071;48.220;14.480;2022-10-16T00:11:03;98.53;;;24.50;;
17890;SDS011;9071;48.220;14.480;2022-10-16T00:16:07;79.73;;;24.20;;
17890;SDS011;9071;48.220;14.480;2022-10-16T00:21:12;39.03;;;20.63;;
17890;SDS011;9071;48.220;14.480;2022-10-16T00:26:16;88.83;;;23.13;;
17890;SDS011;9071;48.220;14.480;2022-10-16T00:31:20;37.67;;;19.20;;
17890;SDS011;9071;48.220;14.480;2022-10-16T00:36:24;132.33;;;24.53;;
17890;SDS011;9071;48.220;14.480;2022-10-16T00:41:28;103.77;;;22.23;;
17890;SDS011;9071;48.220;14.480;2022-10-16T00:46:31;111.30;;;22.37;;
17890;SDS011;9071;48.220;14.480;2022-10-16T00:51:38;43.53;;;20.03;;
17890;SDS011;9071;48.220;14.480;2022-10-16T00:56:43;56.30;;;20.37;;
17890;SDS011;9071;48.220;14.480;2022-10-16T01:01:46;32.27;;;18.57;;
17890;SDS011;9071;48.220;14.480;2022-10-16T01:06:50;52.20;;;20.33;;
17890;SDS011;9071;48.220;14.480;2022-10-16T01:12:04;33.80;;;17.47;;
17890;SDS011;9071;48.220;14.480;2022-10-16T01:17:11;34.13;;;17.23;;
17890;SDS011;9071;48.220;14.480;2022-10-16T01:22:17;45.67;;;18.37;;
17890;SDS011;9071;48.220;14.480;2022-10-16T01:27:24;32.20;;;17.53;;
17890;SDS011;9071;48.220;14.480;2022-10-16T01:32:30;40.30;;;17.63;;
17890;SDS011;9071;48.220;14.480;2022-10-16T01:37:37;74.63;;;19.07;;
17890;SDS011;9071;48.220;14.480;2022-10-16T01:42:45;52.17;;;16.90;;
17890;SDS011;9071;48.220;14.480;2022-10-16T01:47:51;55.80;;;16.80;;
17890;SDS011;9071;48.220;14.480;2022-10-16T01:52:54;53.63;;;18.50;;
17890;SDS011;9071;48.220;14.480;2022-10-16T01:58:00;25.63;;;15.80;;
17890;SDS011;9071;48.220;14.480;2022-10-16T02:03:06;30.00;;;15.53;;
17890;SDS011;9071;48.220;14.480;2022-10-16T02:08:09;56.90;;;17.60;;
17890;SDS011;9071;48.220;14.480;2022-10-16T02:13:15;58.97;;;17.53;;
17890;SDS011;9071;48.220;14.480;2022-10-16T02:18:23;93.87;;;22.13;;
17890;SDS011;9071;48.220;14.480;2022-10-16T02:23:30;25.47;;;15.33;;
17890;SDS011;9071;48.220;14.480;2022-10-16T02:28:41;36.50;;;16.60;;
17890;SDS011;9071;48.220;14.480;2022-10-16T02:33:48;31.77;;;16.70;;
17890;SDS011;9071;48.220;14.480;2022-10-16T02:38:52;32.00;;;18.03;;
17890;SDS011;9071;48.220;14.480;2022-10-16T02:43:57;37.63;;;18.00;;
17890;SDS011;9071;48.220;14.480;2022-10-16T02:48:59;44.40;;;18.77;;
17890;SDS011;9071;48.220;14.480;2022-10-16T02:54:01;24.30;;;15.93;;
17890;SDS011;9071;48.220;14.480;2022-10-16T02:59:05;31.63;;;16.60;;
17890;SDS011;9071;48.220;14.480;2022-10-16T03:04:07;36.37;;;16.90;;
17890;SDS011;9071;48.220;14.480;2022-10-16T03:09:09;44.10;;;18.37;;
17890;SDS011;9071;48.220;14.480;2022-10-16T03:14:12;28.67;;;16.10;;
17890;SDS011;9071;48.220;14.480;2022-10-16T03:19:15;56.47;;;17.57;;
17890;SDS011;9071;48.220;14.480;2022-10-16T03:24:17;27.43;;;15.83;;
17890;SDS011;9071;48.220;14.480;2022-10-16T03:29:21;27.33;;;15.67;;
17890;SDS011;9071;48.220;14.480;2022-10-16T03:34:23;26.93;;;15.97;;
17890;SDS011;9071;48.220;14.480;2022-10-16T03:39:25;40.23;;;17.73;;
17890;SDS011;9071;48.220;14.480;2022-10-16T03:44:29;39.07;;;17.70;;
17890;SDS011;9071;48.220;14.480;2022-10-16T03:49:31;26.03;;;15.57;;
17890;SDS011;9071;48.220;14.480;2022-10-16T03:54:33;43.20;;;17.83;;
17890;SDS011;9071;48.220;14.480;2022-10-16T03:59:36;28.03;;;15.73;;
17890;SDS011;9071;48.220;14.480;2022-10-16T04:04:38;21.57;;;14.60;;
17890;SDS011;9071;48.220;14.480;2022-10-16T04:09:40;45.67;;;20.07;;
17890;SDS011;9071;48.220;14.480;2022-10-16T04:14:44;40.00;;;22.10;;
17890;SDS011;9071;48.220;14.480;2022-10-16T04:19:46;33.27;;;17.50;;
17890;SDS011;9071;48.220;14.480;2022-10-16T04:24:48;22.10;;;16.07;;
17890;SDS011;9071;48.220;14.480;2022-10-16T04:29:51;21.67;;;14.13;;
17890;SDS011;9071;48.220;14.480;2022-10-16T04:34:53;32.50;;;16.63;;
17890;SDS011;9071;48.220;14.480;2022-10-16T04:39:55;35.80;;;15.43;;
17890;SDS011;9071;48.220;14.480;2022-10-16T04:44:59;33.70;;;16.17;;
17890;SDS011;9071;48.220;14.480;2022-10-16T04:50:01;27.47;;;15.30;;
17890;SDS011;9071;48.220;14.480;2022-10-16T04:55:04;32.63;;;15.73;;
17890;SDS011;9071;48.220;14.480;2022-10-16T05:00:08;22.90;;;15.27;;
17890;SDS011;9071;48.220;14.480;2022-10-16T05:05:11;38.93;;;17.90;;
17890;SDS011;9071;48.220;14.480;2022-10-16T05:10:14;26.40;;;14.63;;
17890;SDS011;9071;48.220;14.480;2022-10-16T05:15:18;32.00;;;14.83;;
17890;SDS011;9071;48.220;14.480;2022-10-16T05:20:20;26.97;;;15.10;;
17890;SDS011;9071;48.220;14.480;2022-10-16T05:25:23;68.97;;;34.47;;
17890;SDS011;9071;48.220;14.480;2022-10-16T05:30:26;23.43;;;15.50;;
17890;SDS011;9071;48.220;14.480;2022-10-16T05:35:28;34.87;;;16.13;;
17890;SDS011;9071;48.220;14.480;2022-10-16T05:40:30;31.07;;;16.90;;
17890;SDS011;9071;48.220;14.480;2022-10-16T05:45:34;46.97;;;18.43;;
17890;SDS011;9071;48.220;14.480;2022-10-16T05:50:36;32.30;;;16.73;;
17890;SDS011;9071;48.220;14.480;2022-10-16T05:55:38;23.20;;;15.30;;
17890;SDS011;9071;48.220;14.480;2022-10-16T06:00:41;42.57;;;18.83;;
17890;SDS011;9071;48.220;14.480;2022-10-16T06:05:43;20.20;;;14.73;;
17890;SDS011;9071;48.220;14.480;2022-10-16T06:10:45;23.40;;;14.83;;
17890;SDS011;9071;48.220;14.480;2022-10-16T06:15:49;50.70;;;15.67;;
17890;SDS011;9071;48.220;14.480;2022-10-16T06:20:51;23.77;;;14.90;;
17890;SDS011;9071;48.220;14.480;2022-10-16T06:25:53;101.13;;;21.40;;
17890;SDS011;9071;48.220;14.480;2022-10-16T06:31:00;39.20;;;17.23;;
17890;SDS011;9071;48.220;14.480;2022-10-16T06:36:03;52.43;;;19.67;;
17890;SDS011;9071;48.220;14.480;2022-10-16T06:41:09;34.27;;;15.73;;
17890;SDS011;9071;48.220;14.480;2022-10-16T06:46:15;31.40;;;14.17;;
17890;SDS011;9071;48.220;14.480;2022-10-16T06:51:18;55.73;;;14.07;;
17890;SDS011;9071;48.220;14.480;2022-10-16T06:56:22;68.43;;;15.33;;
17890;SDS011;9071;48.220;14.480;2022-10-16T07:01:26;39.33;;;16.90;;
17890;SDS011;9071;48.220;14.480;2022-10-16T07:06:31;25.63;;;11.53;;
17890;SDS011;9071;48.220;14.480;2022-10-16T07:11:36;52.10;;;10.10;;
17890;SDS011;9071;48.220;14.480;2022-10-16T07:16:40;38.43;;;9.03;;
17890;SDS011;9071;48.220;14.480;2022-10-16T07:21:42;19.03;;;7.93;;
17890;SDS011;9071;48.220;14.480;2022-10-16T07:26:44;73.60;;;11.67;;
17890;SDS011;9071;48.220;14.480;2022-10-16T07:31:48;27.50;;;8.47;;
17890;SDS011;9071;48.220;14.480;2022-10-16T07:36:50;78.00;;;9.10;;
17890;SDS011;9071;48.220;14.480;2022-10-16T07:41:52;75.57;;;10.90;;
17890;SDS011;9071;48.220;14.480;2022-10-16T07:46:56;55.05;;;13.48;;
17890;SDS011;9071;48.220;14.480;2022-10-16T07:51:59;69.67;;;15.60;;
17890;SDS011;9071;48.220;14.480;2022-10-16T07:57:01;39.25;;;14.07;;
17890;SDS011;9071;48.220;14.480;2022-10-16T08:02:06;71.93;;;14.20;;
17890;SDS011;9071;48.220;14.480;2022-10-16T08:07:09;96.72;;;14.45;;
17890;SDS011;9071;48.220;14.480;2022-10-16T08:12:11;23.73;;;9.77;;
17890;SDS011;9071;48.220;14.480;2022-10-16T08:17:14;56.22;;;12.88;;
17890;SDS011;9071;48.220;14.480;2022-10-16T08:22:16;29.75;;;12.13;;
17890;SDS011;9071;48.220;14.480;2022-10-16T08:27:18;58.10;;;13.13;;
17890;SDS011;9071;48.220;14.480;2022-10-16T08:32:22;23.67;;;10.50;;
17890;SDS011;9071;48.220;14.480;2022-10-16T08:37:24;22.73;;;11.82;;
17890;SDS011;9071;48.220;14.480;2022-10-16T08:42:40;16.85;;;10.15;;
17890;SDS011;9071;48.220;14.480;2022-10-16T08:47:56;16.60;;;7.85;;
17890;SDS011;9071;48.220;14.480;2022-10-16T08:53:11;12.50;;;7.57;;
17890;SDS011;9071;48.220;14.480;2022-10-16T08:58:19;9.25;;;6.05;;
17890;SDS011;9071;48.220;14.480;2022-10-16T09:09:22;5.63;;;4.55;;
17890;SDS011;9071;48.220;14.480;2022-10-16T09:14:42;4.95;;;4.30;;
17890;SDS011;9071;48.220;14.480;2022-10-16T09:20:01;4.30;;;3.90;;
17890;SDS011;9071;48.220;14.480;2022-10-16T09:25:20;6.43;;;4.45;;
17890;SDS011;9071;48.220;14.480;2022-10-16T09:30:22;9.50;;;8.50;;
17890;SDS011;9071;48.220;14.480;2022-10-16T09:35:33;14.20;;;11.40;;
17890;SDS011;9071;48.220;14.480;2022-10-16T09:40:38;13.63;;;11.27;;
17890;SDS011;9071;48.220;14.480;2022-10-16T09:45:48;12.07;;;9.88;;
17890;SDS011;9071;48.220;14.480;2022-10-16T09:50:58;9.70;;;7.85;;
17890;SDS011;9071;48.220;14.480;2022-10-16T09:56:00;7.57;;;6.00;;
17890;SDS011;9071;48.220;14.480;2022-10-16T10:01:05;13.50;;;6.13;;
17890;SDS011;9071;48.220;14.480;2022-10-16T10:06:20;14.57;;;5.50;;
17890;SDS011;9071;48.220;14.480;2022-10-16T10:17:11;7.53;;;4.25;;
17890;SDS011;9071;48.220;14.480;2022-10-16T10:22:26;12.48;;;4.07;;
17890;SDS011;9071;48.220;14.480;2022-10-16T10:27:34;6.68;;;3.40;;
17890;SDS011;9071;48.220;14.480;2022-10-16T10:32:44;5.85;;;2.80;;
17890;SDS011;9071;48.220;14.480;2022-10-16T10:38:02;9.02;;;2.45;;
17890;SDS011;9071;48.220;14.480;2022-10-16T10:43:20;3.63;;;2.15;;
17890;SDS011;9071;48.220;14.480;2022-10-16T10:48:41;2.20;;;2.00;;
17890;SDS011;9071;48.220;14.480;2022-10-16T10:53:54;2.80;;;2.10;;
17890;SDS011;9071;48.220;14.480;2022-10-16T10:59:08;3.05;;;1.80;;
17890;SDS011;9071;48.220;14.480;2022-10-16T11:04:42;2.33;;;1.80;;
17890;SDS011;9071;48.220;14.480;2022-10-16T11:10:13;2.97;;;2.00;;
17890;SDS011;9071;48.220;14.480;2022-10-16T11:15:18;3.45;;;1.98;;
17890;SDS011;9071;48.220;14.480;2022-10-16T11:20:27;2.85;;;1.80;;
17890;SDS011;9071;48.220;14.480;2022-10-16T11:25:34;1.58;;;1.48;;
17890;SDS011;9071;48.220;14.480;2022-10-16T11:30:39;3.85;;;1.70;;
17890;SDS011;9071;48.220;14.480;2022-10-16T11:35:47;4.63;;;1.45;;
17890;SDS011;9071;48.220;14.480;2022-10-16T11:40:56;4.05;;;1.80;;
17890;SDS011;9071;48.220;14.480;2022-10-16T11:46:04;3.45;;;1.67;;
17890;SDS011;9071;48.220;14.480;2022-10-16T11:51:16;1.65;;;1.50;;
17890;SDS011;9071;48.220;14.480;2022-10-16T11:56:28;2.67;;;1.70;;
17890;SDS011;9071;48.220;14.480;2022-10-16T12:01:33;2.85;;;1.80;;
17890;SDS011;9071;48.220;14.480;2022-10-16T12:06:42;9.27;;;3.13;;
17890;SDS011;9071;48.220;14.480;2022-10-16T12:11:50;1.55;;;1.45;;
17890;SDS011;9071;48.220;14.480;2022-10-16T12:16:53;2.70;;;1.58;;
17890;SDS011;9071;48.220;14.480;2022-10-16T12:21:57;4.47;;;1.50;;
17890;SDS011;9071;48.220;14.480;2022-10-16T12:27:02;1.77;;;1.60;;
17890;SDS011;9071;48.220;14.480;2022-10-16T12:32:20;2.38;;;1.73;;
17890;SDS011;9071;48.220;14.480;2022-10-16T12:37:30;2.95;;;1.55;;
17890;SDS011;9071;48.220;14.480;2022-10-16T12:42:36;2.47;;;1.55;;
17890;SDS011;9071;48.220;14.480;2022-10-16T12:47:47;4.35;;;1.60;;
17890;SDS011;9071;48.220;14.480;2022-10-16T12:52:51;3.10;;;1.52;;
17890;SDS011;9071;48.220;14.480;2022-10-16T12:58:00;5.68;;;1.63;;
17890;SDS011;9071;48.220;14.480;2022-10-16T13:03:25;3.38;;;1.73;;
17890;SDS011;9071;48.220;14.480;2022-10-16T13:08:52;1.70;;;1.40;;
17890;SDS011;9071;48.220;14.480;2022-10-16T13:14:24;2.67;;;1.50;;
17890;SDS011;9071;48.220;14.480;2022-10-16T13:19:49;7.07;;;1.88;;
17890;SDS011;9071;48.220;14.480;2022-10-16T13:25:03;3.10;;;1.92;;
17890;SDS011;9071;48.220;14.480;2022-10-16T13:30:21;1.70;;;1.50;;
17890;SDS011;9071;48.220;14.480;2022-10-16T13:35:27;7.78;;;1.40;;
17890;SDS011;9071;48.220;14.480;2022-10-16T13:40:30;4.32;;;1.85;;
17890;SDS011;9071;48.220;14.480;2022-10-16T13:45:36;2.25;;;1.25;;
17890;SDS011;9071;48.220;14.480;2022-10-16T13:50:38;1.85;;;1.20;;
17890;SDS011;9071;48.220;14.480;2022-10-16T13:55:40;3.63;;;1.20;;
17890;SDS011;9071;48.220;14.480;2022-10-16T14:00:53;1.88;;;0.95;;
17890;SDS011;9071;48.220;14.480;2022-10-16T14:05:59;3.13;;;0.98;;
17890;SDS011;9071;48.220;14.480;2022-10-16T14:11:03;1.20;;;1.10;;
17890;SDS011;9071;48.220;14.480;2022-10-16T14:16:09;1.75;;;0.90;;
17890;SDS011;9071;48.220;14.480;2022-10-16T14:21:12;2.95;;;0.88;;
17890;SDS011;9071;48.220;14.480;2022-10-16T14:26:18;1.55;;;0.80;;
17890;SDS011;9071;48.220;14.480;2022-10-16T14:31:27;2.25;;;0.90;;
17890;SDS011;9071;48.220;14.480;2022-10-16T14:36:31;3.15;;;1.00;;
17890;SDS011;9071;48.220;14.480;2022-10-16T14:41:40;3.45;;;0.98;;
17890;SDS011;9071;48.220;14.480;2022-10-16T14:46:46;5.22;;;1.27;;
17890;SDS011;9071;48.220;14.480;2022-10-16T14:51:48;2.47;;;1.00;;
17890;SDS011;9071;48.220;14.480;2022-10-16T14:56:53;1.77;;;1.55;;
17890;SDS011;9071;48.220;14.480;2022-10-16T15:01:58;1.30;;;1.20;;
17890;SDS011;9071;48.220;14.480;2022-10-16T15:07:00;4.07;;;1.20;;
17890;SDS011;9071;48.220;14.480;2022-10-16T15:12:02;4.25;;;1.10;;
17890;SDS011;9071;48.220;14.480;2022-10-16T15:17:07;2.13;;;1.15;;
17890;SDS011;9071;48.220;14.480;2022-10-16T15:22:12;1.33;;;1.23;;
17890;SDS011;9071;48.220;14.480;2022-10-16T15:27:14;1.50;;;1.40;;
17890;SDS011;9071;48.220;14.480;2022-10-16T15:32:17;2.30;;;1.20;;
17890;SDS011;9071;48.220;14.480;2022-10-16T15:37:19;3.85;;;1.50;;
17890;SDS011;9071;48.220;14.480;2022-10-16T15:42:21;2.97;;;1.50;;
17890;SDS011;9071;48.220;14.480;2022-10-16T15:47:25;4.65;;;1.42;;
17890;SDS011;9071;48.220;14.480;2022-10-16T15:52:27;1.67;;;1.30;;
17890;SDS011;9071;48.220;14.480;2022-10-16T15:57:29;5.50;;;1.98;;
17890;SDS011;9071;48.220;14.480;2022-10-16T16:02:32;2.60;;;1.90;;
17890;SDS011;9071;48.220;14.480;2022-10-16T16:07:34;2.08;;;1.88;;
17890;SDS011;9071;48.220;14.480;2022-10-16T16:12:37;3.10;;;2.22;;
17890;SDS011;9071;48.220;14.480;2022-10-16T16:17:41;3.08;;;2.40;;
17890;SDS011;9071;48.220;14.480;2022-10-16T16:22:44;5.80;;;2.78;;
17890;SDS011;9071;48.220;14.480;2022-10-16T16:27:46;10.02;;;4.95;;
17890;SDS011;9071;48.220;14.480;2022-10-16T16:32:49;5.38;;;3.63;;
17890;SDS011;9071;48.220;14.480;2022-10-16T16:37:51;3.95;;;3.20;;
17890;SDS011;9071;48.220;14.480;2022-10-16T16:42:53;7.30;;;4.60;;
17890;SDS011;9071;48.220;14.480;2022-10-16T16:47:57;6.03;;;5.15;;
17890;SDS011;9071;48.220;14.480;2022-10-16T16:52:59;14.10;;;6.22;;
17890;SDS011;9071;48.220;14.480;2022-10-16T16:58:01;9.00;;;6.07;;
17890;SDS011;9071;48.220;14.480;2022-10-16T17:03:06;8.48;;;6.68;;
17890;SDS011;9071;48.220;14.480;2022-10-16T17:08:08;11.10;;;7.93;;
17890;SDS011;9071;48.220;14.480;2022-10-16T17:13:10;13.05;;;8.98;;
17890;SDS011;9071;48.220;14.480;2022-10-16T17:18:13;15.45;;;10.65;;
17890;SDS011;9071;48.220;14.480;2022-10-16T17:23:16;16.42;;;11.85;;
17890;SDS011;9071;48.220;14.480;2022-10-16T17:28:22;20.23;;;14.63;;
17890;SDS011;9071;48.220;14.480;2022-10-16T17:33:25;22.55;;;16.27;;
17890;SDS011;9071;48.220;14.480;2022-10-16T17:38:27;28.55;;;18.83;;
17890;SDS011;9071;48.220;14.480;2022-10-16T17:43:29;27.70;;;18.98;;
17890;SDS011;9071;48.220;14.480;2022-10-16T17:48:35;33.75;;;21.13;;
17890;SDS011;9071;48.220;14.480;2022-10-16T17:53:38;34.70;;;20.05;;
17890;SDS011;9071;48.220;14.480;2022-10-16T17:58:40;30.33;;;21.48;;
17890;SDS011;9071;48.220;14.480;2022-10-16T18:03:46;36.10;;;21.33;;
17890;SDS011;9071;48.220;14.480;2022-10-16T18:08:50;34.22;;;23.27;;
17890;SDS011;9071;48.220;14.480;2022-10-16T18:13:53;37.55;;;25.33;;
17890;SDS011;9071;48.220;14.480;2022-10-16T18:18:57;41.25;;;25.88;;
17890;SDS011;9071;48.220;14.480;2022-10-16T18:24:00;43.63;;;28.17;;
17890;SDS011;9071;48.220;14.480;2022-10-16T18:29:02;52.13;;;30.88;;
17890;SDS011;9071;48.220;14.480;2022-10-16T18:34:05;46.47;;;30.10;;
17890;SDS011;9071;48.220;14.480;2022-10-16T18:39:09;54.10;;;32.75;;
17890;SDS011;9071;48.220;14.480;2022-10-16T18:44:12;58.90;;;34.88;;
17890;SDS011;9071;48.220;14.480;2022-10-16T18:49:15;59.10;;;34.25;;
17890;SDS011;9071;48.220;14.480;2022-10-16T18:54:21;57.58;;;36.58;;
17890;SDS011;9071;48.220;14.480;2022-10-16T18:59:25;60.45;;;37.95;;
17890;SDS011;9071;48.220;14.480;2022-10-16T19:04:28;69.68;;;40.33;;
17890;SDS011;9071;48.220;14.480;2022-10-16T19:09:30;66.68;;;39.42;;
17890;SDS011;9071;48.220;14.480;2022-10-16T19:14:32;74.40;;;41.15;;
17890;SDS011;9071;48.220;14.480;2022-10-16T19:19:37;74.38;;;42.33;;
17890;SDS011;9071;48.220;14.480;2022-10-16T19:24:39;87.60;;;45.80;;
17890;SDS011;9071;48.220;14.480;2022-10-16T19:29:41;82.37;;;43.87;;
17890;SDS011;9071;48.220;14.480;2022-10-16T19:34:48;80.07;;;44.90;;
17890;SDS011;9071;48.220;14.480;2022-10-16T19:39:50;80.10;;;44.63;;
17890;SDS011;9071;48.220;14.480;2022-10-16T19:44:52;77.15;;;43.25;;
17890;SDS011;9071;48.220;14.480;2022-10-16T19:49:56;86.33;;;45.97;;
17890;SDS011;9071;48.220;14.480;2022-10-16T19:54:58;87.28;;;45.63;;
17890;SDS011;9071;48.220;14.480;2022-10-16T20:00:00;85.72;;;46.08;;
17890;SDS011;9071;48.220;14.480;2022-10-16T20:05:04;93.50;;;48.53;;
17890;SDS011;9071;48.220;14.480;2022-10-16T20:10:07;99.47;;;49.50;;
17890;SDS011;9071;48.220;14.480;2022-10-16T20:15:09;98.47;;;50.63;;
17890;SDS011;9071;48.220;14.480;2022-10-16T20:20:13;109.27;;;52.53;;
17890;SDS011;9071;48.220;14.480;2022-10-16T20:25:15;112.03;;;54.47;;
17890;SDS011;9071;48.220;14.480;2022-10-16T20:30:17;125.30;;;57.97;;
17890;SDS011;9071;48.220;14.480;2022-10-16T20:35:21;112.83;;;54.67;;
17890;SDS011;9071;48.220;14.480;2022-10-16T20:40:23;119.43;;;57.80;;
17890;SDS011;9071;48.220;14.480;2022-10-16T20:45:25;124.17;;;61.43;;
17890;SDS011;9071;48.220;14.480;2022-10-16T20:50:28;125.50;;;56.47;;
17890;SDS011;9071;48.220;14.480;2022-10-16T20:55:33;135.90;;;60.47;;
17890;SDS011;9071;48.220;14.480;2022-10-16T21:00:36;136.67;;;63.17;;
17890;SDS011;9071;48.220;14.480;2022-10-16T21:05:40;128.47;;;60.90;;
17890;SDS011;9071;48.220;14.480;2022-10-16T21:10:43;137.63;;;62.03;;
17890;SDS011;9071;48.220;14.480;2022-10-16T21:15:44;141.83;;;70.30;;
17890;SDS011;9071;48.220;14.480;2022-10-16T21:20:48;129.80;;;64.53;;
17890;SDS011;9071;48.220;14.480;2022-10-16T21:25:50;124.57;;;59.27;;
17890;SDS011;9071;48.220;14.480;2022-10-16T21:30:53;114.77;;;56.10;;
17890;SDS011;9071;48.220;14.480;2022-10-16T21:35:56;129.40;;;59.50;;
17890;SDS011;9071;48.220;14.480;2022-10-16T21:41:00;118.83;;;56.23;;
17890;SDS011;9071;48.220;14.480;2022-10-16T21:46:11;112.07;;;53.33;;
17890;SDS011;9071;48.220;14.480;2022-10-16T21:51:15;119.47;;;55.00;;
17890;SDS011;9071;48.220;14.480;2022-10-16T21:56:17;112.13;;;52.53;;
17890;SDS011;9071;48.220;14.480;2022-10-16T22:01:19;109.83;;;49.83;;
17890;SDS011;9071;48.220;14.480;2022-10-16T22:06:25;116.47;;;51.97;;
17890;SDS011;9071;48.220;14.480;2022-10-16T22:11:28;109.43;;;49.83;;
17890;SDS011;9071;48.220;14.480;2022-10-16T22:16:36;119.40;;;51.93;;
17890;SDS011;9071;48.220;14.480;2022-10-16T22:21:40;122.60;;;53.87;;
17890;SDS011;9071;48.220;14.480;2022-10-16T22:26:44;136.73;;;57.43;;
17890;SDS011;9071;48.220;14.480;2022-10-16T22:31:49;135.00;;;56.57;;
17890;SDS011;9071;48.220;14.480;2022-10-16T22:36:53;120.30;;;53.20;;
17890;SDS011;9071;48.220;14.480;2022-10-16T22:41:55;137.97;;;55.17;;
17890;SDS011;9071;48.220;14.480;2022-10-16T22:46:57;139.37;;;58.07;;
17890;SDS011;9071;48.220;14.480;2022-10-16T22:52:00;144.67;;;57.27;;
17890;SDS011;9071;48.220;14.480;2022-10-16T22:57:08;114.93;;;48.60;;
17890;SDS011;9071;48.220;14.480;2022-10-16T23:02:14;109.03;;;47.83;;
17890;SDS011;9071;48.220;14.480;2022-10-16T23:07:18;130.27;;;53.10;;
17890;SDS011;9071;48.220;14.480;2022-10-16T23:12:20;122.60;;;50.70;;
17890;SDS011;9071;48.220;14.480;2022-10-16T23:17:25;89.43;;;38.93;;
17890;SDS011;9071;48.220;14.480;2022-10-16T23:22:28;75.13;;;35.53;;
17890;SDS011;9071;48.220;14.480;2022-10-16T23:27:30;63.13;;;32.47;;
17890;SDS011;9071;48.220;14.480;2022-10-16T23:32:33;57.37;;;29.97;;
17890;SDS011;9071;48.220;14.480;2022-10-16T23:37:36;58.40;;;29.03;;
17890;SDS011;9071;48.220;14.480;2022-10-16T23:42:38;71.03;;;35.73;;
17890;SDS011;9071;48.220;14.480;2022-10-16T23:47:40;76.57;;;37.13;;
17890;SDS011;9071;48.220;14.480;2022-10-16T23:52:45;65.50;;;32.43;;
17890;SDS011;9071;48.220;14.480;2022-10-16T23:57:47;66.80;;;32.77;;
